KSHD/SHD METAR and TAF weather

Enter ICAO airport designator
Station Type Date Time Source
KSHD METAR 2019/09/20 10:15 UTC NOAA

KSHD 201015Z AUTO 00000KT 5SM BR CLR 05/05 A3033 RMK AO2 T00520048


Station Type Date Time Source
KSHD Decoded METAR 2019/09/20 10:15 UTC NOAA

Staunton / Shenandoah, VA, United States (KSHD) 38-16N 078-54W
Sep 20, 2019 - 06:15 AM EDT / 2019.09.20 1015 UTC
Wind: Calm:0
Visibility: 5 mile(s):0
Sky conditions: clear
Weather: mist
Temperature: 41.4 F (5.2 C)
Dew Point: 40.6 F (4.8 C)
Relative Humidity: 97%
Pressure (altimeter): 30.33 in. Hg (1027 hPa)
ob: KSHD 201015Z AUTO 00000KT 5SM BR CLR 05/05 A3033 RMK AO2 T00520048
cycle: 10

Station Type Date Time Source
KSHD TAF UTC NOAA

Error!

Example: see airport list